sensor_id;sensor_type;location;lat;lon;timestamp;P1;durP1;ratioP1;P2;durP2;ratioP2
67554;SDS011;54385;53.516;49.456;2022-07-29T00:01:16;0.68;;;0.68;;
67554;SDS011;54385;53.516;49.456;2022-07-29T00:03:43;0.75;;;0.75;;
67554;SDS011;54385;53.516;49.456;2022-07-29T00:06:10;0.75;;;0.75;;
67554;SDS011;54385;53.516;49.456;2022-07-29T00:08:40;0.65;;;0.65;;
67554;SDS011;54385;53.516;49.456;2022-07-29T00:11:06;0.75;;;0.75;;
67554;SDS011;54385;53.516;49.456;2022-07-29T00:13:33;0.75;;;0.75;;
67554;SDS011;54385;53.516;49.456;2022-07-29T00:15:59;0.75;;;0.75;;
67554;SDS011;54385;53.516;49.456;2022-07-29T00:18:26;0.73;;;0.73;;
67554;SDS011;54385;53.516;49.456;2022-07-29T00:20:52;0.75;;;0.75;;
67554;SDS011;54385;53.516;49.456;2022-07-29T00:23:19;0.77;;;0.77;;
67554;SDS011;54385;53.516;49.456;2022-07-29T00:25:45;0.75;;;0.75;;
67554;SDS011;54385;53.516;49.456;2022-07-29T00:28:12;0.75;;;0.75;;
67554;SDS011;54385;53.516;49.456;2022-07-29T00:30:38;0.70;;;0.70;;
67554;SDS011;54385;53.516;49.456;2022-07-29T00:33:07;0.75;;;0.75;;
67554;SDS011;54385;53.516;49.456;2022-07-29T00:35:34;0.73;;;0.73;;
67554;SDS011;54385;53.516;49.456;2022-07-29T00:38:14;0.75;;;0.75;;
67554;SDS011;54385;53.516;49.456;2022-07-29T00:40:43;0.73;;;0.73;;
67554;SDS011;54385;53.516;49.456;2022-07-29T00:43:10;0.73;;;0.73;;
67554;SDS011;54385;53.516;49.456;2022-07-29T00:45:37;0.68;;;0.68;;
67554;SDS011;54385;53.516;49.456;2022-07-29T00:48:04;0.75;;;0.75;;
67554;SDS011;54385;53.516;49.456;2022-07-29T00:50:32;0.65;;;0.65;;
67554;SDS011;54385;53.516;49.456;2022-07-29T00:52:58;0.68;;;0.68;;
67554;SDS011;54385;53.516;49.456;2022-07-29T00:55:25;0.73;;;0.73;;
67554;SDS011;54385;53.516;49.456;2022-07-29T00:57:52;0.73;;;0.73;;
67554;SDS011;54385;53.516;49.456;2022-07-29T01:00:21;0.70;;;0.70;;
67554;SDS011;54385;53.516;49.456;2022-07-29T01:02:48;2.30;;;2.20;;
67554;SDS011;54385;53.516;49.456;2022-07-29T01:05:20;0.73;;;0.73;;
67554;SDS011;54385;53.516;49.456;2022-07-29T01:07:49;0.75;;;0.75;;
67554;SDS011;54385;53.516;49.456;2022-07-29T01:10:19;0.73;;;0.73;;
67554;SDS011;54385;53.516;49.456;2022-07-29T01:12:48;0.77;;;0.77;;
67554;SDS011;54385;53.516;49.456;2022-07-29T01:15:17;2.17;;;2.08;;
67554;SDS011;54385;53.516;49.456;2022-07-29T01:17:44;0.75;;;0.75;;
67554;SDS011;54385;53.516;49.456;2022-07-29T01:20:20;0.70;;;0.70;;
67554;SDS011;54385;53.516;49.456;2022-07-29T01:31:05;0.75;;;0.75;;
67554;SDS011;54385;53.516;49.456;2022-07-29T01:33:34;0.73;;;0.73;;
67554;SDS011;54385;53.516;49.456;2022-07-29T01:36:32;0.75;;;0.75;;
67554;SDS011;54385;53.516;49.456;2022-07-29T01:39:08;2.05;;;1.98;;
67554;SDS011;54385;53.516;49.456;2022-07-29T01:41:38;0.77;;;0.77;;
67554;SDS011;54385;53.516;49.456;2022-07-29T01:44:15;0.73;;;0.73;;
67554;SDS011;54385;53.516;49.456;2022-07-29T01:46:52;0.68;;;0.68;;
67554;SDS011;54385;53.516;49.456;2022-07-29T01:49:24;2.15;;;2.05;;
67554;SDS011;54385;53.516;49.456;2022-07-29T01:52:08;0.80;;;0.80;;
67554;SDS011;54385;53.516;49.456;2022-07-29T01:54:40;0.75;;;0.75;;
67554;SDS011;54385;53.516;49.456;2022-07-29T01:57:09;2.28;;;2.17;;
67554;SDS011;54385;53.516;49.456;2022-07-29T01:59:44;0.77;;;0.77;;
67554;SDS011;54385;53.516;49.456;2022-07-29T02:02:12;0.75;;;0.75;;
67554;SDS011;54385;53.516;49.456;2022-07-29T02:04:41;0.75;;;0.75;;
67554;SDS011;54385;53.516;49.456;2022-07-29T02:07:12;2.25;;;2.15;;
67554;SDS011;54385;53.516;49.456;2022-07-29T02:09:42;0.75;;;0.75;;
67554;SDS011;54385;53.516;49.456;2022-07-29T02:12:11;0.75;;;0.75;;
67554;SDS011;54385;53.516;49.456;2022-07-29T02:14:40;0.73;;;0.73;;
67554;SDS011;54385;53.516;49.456;2022-07-29T02:17:10;0.80;;;0.80;;
67554;SDS011;54385;53.516;49.456;2022-07-29T02:19:39;0.75;;;0.75;;
67554;SDS011;54385;53.516;49.456;2022-07-29T02:22:06;0.77;;;0.77;;
67554;SDS011;54385;53.516;49.456;2022-07-29T02:24:37;0.77;;;0.77;;
67554;SDS011;54385;53.516;49.456;2022-07-29T02:27:06;0.73;;;0.73;;
67554;SDS011;54385;53.516;49.456;2022-07-29T02:29:33;0.68;;;0.68;;
67554;SDS011;54385;53.516;49.456;2022-07-29T02:32:02;0.73;;;0.73;;
67554;SDS011;54385;53.516;49.456;2022-07-29T02:34:30;0.82;;;0.82;;
67554;SDS011;54385;53.516;49.456;2022-07-29T02:36:59;0.75;;;0.75;;
67554;SDS011;54385;53.516;49.456;2022-07-29T02:39:26;0.77;;;0.77;;
67554;SDS011;54385;53.516;49.456;2022-07-29T02:41:57;0.75;;;0.75;;
67554;SDS011;54385;53.516;49.456;2022-07-29T02:44:29;0.77;;;0.77;;
67554;SDS011;54385;53.516;49.456;2022-07-29T02:52:14;0.75;;;0.75;;
67554;SDS011;54385;53.516;49.456;2022-07-29T02:58:01;0.85;;;0.85;;
67554;SDS011;54385;53.516;49.456;2022-07-29T03:00:48;0.80;;;0.80;;
67554;SDS011;54385;53.516;49.456;2022-07-29T03:03:17;0.82;;;0.82;;
67554;SDS011;54385;53.516;49.456;2022-07-29T03:05:44;0.85;;;0.85;;
67554;SDS011;54385;53.516;49.456;2022-07-29T03:08:11;0.82;;;0.82;;
67554;SDS011;54385;53.516;49.456;2022-07-29T03:10:48;0.85;;;0.85;;
67554;SDS011;54385;53.516;49.456;2022-07-29T03:13:15;0.88;;;0.88;;
67554;SDS011;54385;53.516;49.456;2022-07-29T03:15:42;0.85;;;0.85;;
67554;SDS011;54385;53.516;49.456;2022-07-29T03:18:10;0.82;;;0.82;;
67554;SDS011;54385;53.516;49.456;2022-07-29T03:20:37;0.82;;;0.82;;
67554;SDS011;54385;53.516;49.456;2022-07-29T03:23:04;0.82;;;0.82;;
67554;SDS011;54385;53.516;49.456;2022-07-29T03:25:31;0.85;;;0.85;;
67554;SDS011;54385;53.516;49.456;2022-07-29T03:27:57;0.80;;;0.80;;
67554;SDS011;54385;53.516;49.456;2022-07-29T03:30:24;0.77;;;0.77;;
67554;SDS011;54385;53.516;49.456;2022-07-29T03:32:51;0.93;;;0.93;;
67554;SDS011;54385;53.516;49.456;2022-07-29T03:35:21;2.40;;;2.30;;
67554;SDS011;54385;53.516;49.456;2022-07-29T03:37:53;2.50;;;2.40;;
67554;SDS011;54385;53.516;49.456;2022-07-29T03:40:26;0.85;;;0.85;;
67554;SDS011;54385;53.516;49.456;2022-07-29T03:43:00;0.82;;;0.82;;
67554;SDS011;54385;53.516;49.456;2022-07-29T03:45:29;2.47;;;2.38;;
67554;SDS011;54385;53.516;49.456;2022-07-29T03:47:59;0.90;;;0.90;;
67554;SDS011;54385;53.516;49.456;2022-07-29T03:50:31;1.00;;;1.00;;
67554;SDS011;54385;53.516;49.456;2022-07-29T03:52:59;0.93;;;0.93;;
67554;SDS011;54385;53.516;49.456;2022-07-29T03:55:32;0.95;;;0.95;;
67554;SDS011;54385;53.516;49.456;2022-07-29T03:58:13;0.93;;;0.93;;
67554;SDS011;54385;53.516;49.456;2022-07-29T04:00:41;0.88;;;0.88;;
67554;SDS011;54385;53.516;49.456;2022-07-29T04:03:11;0.93;;;0.93;;
67554;SDS011;54385;53.516;49.456;2022-07-29T04:05:41;0.93;;;0.93;;
67554;SDS011;54385;53.516;49.456;2022-07-29T04:08:10;0.85;;;0.85;;
67554;SDS011;54385;53.516;49.456;2022-07-29T04:10:37;0.82;;;0.82;;
67554;SDS011;54385;53.516;49.456;2022-07-29T04:13:04;0.85;;;0.85;;
67554;SDS011;54385;53.516;49.456;2022-07-29T04:15:30;0.93;;;0.93;;
67554;SDS011;54385;53.516;49.456;2022-07-29T04:17:57;0.95;;;0.95;;
67554;SDS011;54385;53.516;49.456;2022-07-29T04:20:24;0.95;;;0.95;;
67554;SDS011;54385;53.516;49.456;2022-07-29T04:22:51;0.93;;;0.93;;
67554;SDS011;54385;53.516;49.456;2022-07-29T04:25:17;1.00;;;1.00;;
67554;SDS011;54385;53.516;49.456;2022-07-29T04:27:44;0.95;;;0.95;;
67554;SDS011;54385;53.516;49.456;2022-07-29T04:30:26;0.88;;;0.88;;
67554;SDS011;54385;53.516;49.456;2022-07-29T04:32:53;0.95;;;0.95;;
67554;SDS011;54385;53.516;49.456;2022-07-29T04:35:21;0.93;;;0.93;;
67554;SDS011;54385;53.516;49.456;2022-07-29T04:37:49;1.02;;;1.02;;
67554;SDS011;54385;53.516;49.456;2022-07-29T04:40:16;1.00;;;1.00;;
67554;SDS011;54385;53.516;49.456;2022-07-29T04:42:43;0.95;;;0.95;;
67554;SDS011;54385;53.516;49.456;2022-07-29T04:45:09;1.02;;;1.02;;
67554;SDS011;54385;53.516;49.456;2022-07-29T04:47:36;1.05;;;1.05;;
67554;SDS011;54385;53.516;49.456;2022-07-29T04:50:03;1.00;;;1.00;;
67554;SDS011;54385;53.516;49.456;2022-07-29T04:52:31;1.08;;;1.08;;
67554;SDS011;54385;53.516;49.456;2022-07-29T04:54:58;0.98;;;0.98;;
67554;SDS011;54385;53.516;49.456;2022-07-29T04:57:25;1.05;;;1.05;;
67554;SDS011;54385;53.516;49.456;2022-07-29T04:59:51;1.08;;;1.08;;
67554;SDS011;54385;53.516;49.456;2022-07-29T05:02:18;1.08;;;1.08;;
67554;SDS011;54385;53.516;49.456;2022-07-29T05:04:44;1.10;;;1.10;;
67554;SDS011;54385;53.516;49.456;2022-07-29T05:07:10;1.15;;;1.15;;
67554;SDS011;54385;53.516;49.456;2022-07-29T05:09:37;1.17;;;1.17;;
67554;SDS011;54385;53.516;49.456;2022-07-29T05:12:03;1.20;;;1.20;;
67554;SDS011;54385;53.516;49.456;2022-07-29T05:14:30;1.05;;;1.05;;
67554;SDS011;54385;53.516;49.456;2022-07-29T05:16:57;1.15;;;1.15;;
67554;SDS011;54385;53.516;49.456;2022-07-29T05:19:23;1.17;;;1.17;;
67554;SDS011;54385;53.516;49.456;2022-07-29T05:21:50;1.13;;;1.13;;
67554;SDS011;54385;53.516;49.456;2022-07-29T05:24:16;1.13;;;1.13;;
67554;SDS011;54385;53.516;49.456;2022-07-29T05:26:43;1.05;;;1.05;;
67554;SDS011;54385;53.516;49.456;2022-07-29T05:29:09;1.15;;;1.15;;
67554;SDS011;54385;53.516;49.456;2022-07-29T05:31:37;1.25;;;1.25;;
67554;SDS011;54385;53.516;49.456;2022-07-29T05:34:03;1.20;;;1.20;;
67554;SDS011;54385;53.516;49.456;2022-07-29T05:36:29;1.25;;;1.25;;
67554;SDS011;54385;53.516;49.456;2022-07-29T05:38:56;1.20;;;1.20;;
67554;SDS011;54385;53.516;49.456;2022-07-29T05:41:23;1.35;;;1.35;;
67554;SDS011;54385;53.516;49.456;2022-07-29T05:43:49;1.17;;;1.17;;
67554;SDS011;54385;53.516;49.456;2022-07-29T05:46:16;1.20;;;1.20;;
67554;SDS011;54385;53.516;49.456;2022-07-29T05:48:45;1.20;;;1.20;;
67554;SDS011;54385;53.516;49.456;2022-07-29T05:51:12;1.33;;;1.33;;
67554;SDS011;54385;53.516;49.456;2022-07-29T05:53:39;1.27;;;1.27;;
67554;SDS011;54385;53.516;49.456;2022-07-29T05:56:05;1.38;;;1.38;;
67554;SDS011;54385;53.516;49.456;2022-07-29T05:58:36;1.27;;;1.27;;
67554;SDS011;54385;53.516;49.456;2022-07-29T06:01:06;1.40;;;1.40;;
67554;SDS011;54385;53.516;49.456;2022-07-29T06:03:37;1.30;;;1.30;;
67554;SDS011;54385;53.516;49.456;2022-07-29T06:06:04;1.33;;;1.33;;
67554;SDS011;54385;53.516;49.456;2022-07-29T06:08:33;1.35;;;1.35;;
67554;SDS011;54385;53.516;49.456;2022-07-29T06:11:00;1.38;;;1.38;;
67554;SDS011;54385;53.516;49.456;2022-07-29T06:13:26;1.27;;;1.27;;
67554;SDS011;54385;53.516;49.456;2022-07-29T06:15:53;1.33;;;1.33;;
67554;SDS011;54385;53.516;49.456;2022-07-29T06:18:20;1.27;;;1.27;;
67554;SDS011;54385;53.516;49.456;2022-07-29T06:20:49;1.40;;;1.40;;
67554;SDS011;54385;53.516;49.456;2022-07-29T06:23:17;1.33;;;1.33;;
67554;SDS011;54385;53.516;49.456;2022-07-29T06:25:44;1.35;;;1.35;;
67554;SDS011;54385;53.516;49.456;2022-07-29T06:28:10;1.35;;;1.35;;
67554;SDS011;54385;53.516;49.456;2022-07-29T06:30:37;1.40;;;1.40;;
67554;SDS011;54385;53.516;49.456;2022-07-29T06:33:04;1.52;;;1.52;;
67554;SDS011;54385;53.516;49.456;2022-07-29T06:35:34;1.35;;;1.35;;
67554;SDS011;54385;53.516;49.456;2022-07-29T06:38:05;1.33;;;1.33;;
67554;SDS011;54385;53.516;49.456;2022-07-29T06:40:31;1.38;;;1.38;;
67554;SDS011;54385;53.516;49.456;2022-07-29T06:43:16;1.38;;;1.38;;
67554;SDS011;54385;53.516;49.456;2022-07-29T06:45:43;1.35;;;1.35;;
67554;SDS011;54385;53.516;49.456;2022-07-29T06:48:09;1.33;;;1.33;;
67554;SDS011;54385;53.516;49.456;2022-07-29T06:50:36;1.33;;;1.33;;
67554;SDS011;54385;53.516;49.456;2022-07-29T06:53:03;1.40;;;1.40;;
67554;SDS011;54385;53.516;49.456;2022-07-29T06:55:29;1.35;;;1.35;;
67554;SDS011;54385;53.516;49.456;2022-07-29T06:57:56;1.40;;;1.40;;
67554;SDS011;54385;53.516;49.456;2022-07-29T07:00:25;1.42;;;1.42;;
67554;SDS011;54385;53.516;49.456;2022-07-29T07:02:56;1.27;;;1.27;;
67554;SDS011;54385;53.516;49.456;2022-07-29T07:05:23;1.33;;;1.33;;
67554;SDS011;54385;53.516;49.456;2022-07-29T07:07:49;1.35;;;1.35;;
67554;SDS011;54385;53.516;49.456;2022-07-29T07:10:16;1.40;;;1.40;;
67554;SDS011;54385;53.516;49.456;2022-07-29T07:12:42;1.50;;;1.50;;
67554;SDS011;54385;53.516;49.456;2022-07-29T07:15:09;1.35;;;1.35;;
67554;SDS011;54385;53.516;49.456;2022-07-29T07:17:36;1.42;;;1.42;;
67554;SDS011;54385;53.516;49.456;2022-07-29T07:20:04;1.48;;;1.48;;
67554;SDS011;54385;53.516;49.456;2022-07-29T07:22:31;1.58;;;1.58;;
67554;SDS011;54385;53.516;49.456;2022-07-29T07:24:58;1.50;;;1.50;;
67554;SDS011;54385;53.516;49.456;2022-07-29T07:27:24;1.55;;;1.55;;
67554;SDS011;54385;53.516;49.456;2022-07-29T07:29:50;1.45;;;1.45;;
67554;SDS011;54385;53.516;49.456;2022-07-29T07:32:23;3.17;;;3.08;;
67554;SDS011;54385;53.516;49.456;2022-07-29T07:34:49;3.30;;;3.20;;
67554;SDS011;54385;53.516;49.456;2022-07-29T07:37:16;1.58;;;1.58;;
67554;SDS011;54385;53.516;49.456;2022-07-29T07:39:44;3.53;;;3.43;;
67554;SDS011;54385;53.516;49.456;2022-07-29T07:42:11;1.63;;;1.63;;
67554;SDS011;54385;53.516;49.456;2022-07-29T07:44:39;1.65;;;1.65;;
67554;SDS011;54385;53.516;49.456;2022-07-29T07:47:08;1.50;;;1.50;;
67554;SDS011;54385;53.516;49.456;2022-07-29T07:49:35;1.73;;;1.73;;
67554;SDS011;54385;53.516;49.456;2022-07-29T07:52:01;1.45;;;1.45;;
67554;SDS011;54385;53.516;49.456;2022-07-29T07:54:28;1.55;;;1.55;;
67554;SDS011;54385;53.516;49.456;2022-07-29T07:56:54;1.55;;;1.55;;
67554;SDS011;54385;53.516;49.456;2022-07-29T07:59:21;1.48;;;1.48;;
67554;SDS011;54385;53.516;49.456;2022-07-29T08:01:48;1.67;;;1.67;;
67554;SDS011;54385;53.516;49.456;2022-07-29T08:04:17;1.75;;;1.75;;
67554;SDS011;54385;53.516;49.456;2022-07-29T08:06:43;2.97;;;2.88;;
67554;SDS011;54385;53.516;49.456;2022-07-29T08:09:10;1.63;;;1.63;;
67554;SDS011;54385;53.516;49.456;2022-07-29T08:11:36;1.70;;;1.70;;
67554;SDS011;54385;53.516;49.456;2022-07-29T08:14:03;1.73;;;1.73;;
67554;SDS011;54385;53.516;49.456;2022-07-29T08:16:29;1.58;;;1.58;;
67554;SDS011;54385;53.516;49.456;2022-07-29T08:18:56;1.73;;;1.70;;
67554;SDS011;54385;53.516;49.456;2022-07-29T08:21:23;1.63;;;1.63;;
67554;SDS011;54385;53.516;49.456;2022-07-29T08:23:50;1.85;;;1.83;;
67554;SDS011;54385;53.516;49.456;2022-07-29T08:26:41;1.75;;;1.75;;
67554;SDS011;54385;53.516;49.456;2022-07-29T08:29:08;1.75;;;1.75;;
67554;SDS011;54385;53.516;49.456;2022-07-29T08:31:36;1.65;;;1.65;;
67554;SDS011;54385;53.516;49.456;2022-07-29T08:34:03;2.00;;;1.90;;
67554;SDS011;54385;53.516;49.456;2022-07-29T08:36:33;1.92;;;1.85;;
67554;SDS011;54385;53.516;49.456;2022-07-29T08:39:02;1.75;;;1.75;;
67554;SDS011;54385;53.516;49.456;2022-07-29T08:41:29;1.90;;;1.85;;
67554;SDS011;54385;53.516;49.456;2022-07-29T08:43:56;1.75;;;1.75;;
67554;SDS011;54385;53.516;49.456;2022-07-29T08:46:29;1.95;;;1.85;;
67554;SDS011;54385;53.516;49.456;2022-07-29T08:49:03;1.80;;;1.77;;
67554;SDS011;54385;53.516;49.456;2022-07-29T08:51:33;3.70;;;3.58;;
67554;SDS011;54385;53.516;49.456;2022-07-29T08:54:02;3.72;;;3.60;;
67554;SDS011;54385;53.516;49.456;2022-07-29T08:56:29;1.98;;;1.88;;
67554;SDS011;54385;53.516;49.456;2022-07-29T08:58:57;2.08;;;1.98;;
67554;SDS011;54385;53.516;49.456;2022-07-29T09:01:28;2.05;;;1.95;;
67554;SDS011;54385;53.516;49.456;2022-07-29T09:03:57;3.67;;;3.55;;
67554;SDS011;54385;53.516;49.456;2022-07-29T09:06:28;2.10;;;2.00;;
67554;SDS011;54385;53.516;49.456;2022-07-29T09:09:01;2.25;;;2.15;;
67554;SDS011;54385;53.516;49.456;2022-07-29T09:11:31;3.67;;;3.55;;
67554;SDS011;54385;53.516;49.456;2022-07-29T09:13:59;4.03;;;3.85;;
67554;SDS011;54385;53.516;49.456;2022-07-29T09:16:25;2.22;;;2.13;;
67554;SDS011;54385;53.516;49.456;2022-07-29T09:19:27;2.22;;;2.13;;
67554;SDS011;54385;53.516;49.456;2022-07-29T09:21:59;2.15;;;2.05;;
67554;SDS011;54385;53.516;49.456;2022-07-29T09:24:38;2.22;;;2.13;;
67554;SDS011;54385;53.516;49.456;2022-07-29T09:27:22;2.22;;;2.13;;
67554;SDS011;54385;53.516;49.456;2022-07-29T09:30:05;3.97;;;3.80;;
67554;SDS011;54385;53.516;49.456;2022-07-29T09:32:33;2.10;;;2.00;;
67554;SDS011;54385;53.516;49.456;2022-07-29T09:35:28;2.17;;;2.08;;
67554;SDS011;54385;53.516;49.456;2022-07-29T09:37:55;2.17;;;2.08;;
67554;SDS011;54385;53.516;49.456;2022-07-29T09:40:26;2.38;;;2.28;;
67554;SDS011;54385;53.516;49.456;2022-07-29T09:42:56;2.15;;;2.05;;
67554;SDS011;54385;53.516;49.456;2022-07-29T09:45:32;2.00;;;1.90;;
67554;SDS011;54385;53.516;49.456;2022-07-29T09:48:16;4.05;;;3.88;;
67554;SDS011;54385;53.516;49.456;2022-07-29T09:50:45;2.67;;;2.58;;
67554;SDS011;54385;53.516;49.456;2022-07-29T09:53:33;4.40;;;4.20;;
67554;SDS011;54385;53.516;49.456;2022-07-29T09:56:01;3.20;;;3.10;;
67554;SDS011;54385;53.516;49.456;2022-07-29T09:58:31;3.28;;;3.17;;
67554;SDS011;54385;53.516;49.456;2022-07-29T10:01:01;3.70;;;3.60;;
67554;SDS011;54385;53.516;49.456;2022-07-29T10:03:28;4.60;;;4.40;;
67554;SDS011;54385;53.516;49.456;2022-07-29T10:06:08;5.32;;;5.13;;
67554;SDS011;54385;53.516;49.456;2022-07-29T10:08:36;5.80;;;5.57;;
67554;SDS011;54385;53.516;49.456;2022-07-29T10:11:12;6.82;;;6.53;;
67554;SDS011;54385;53.516;49.456;2022-07-29T10:13:40;7.30;;;7.00;;
67554;SDS011;54385;53.516;49.456;2022-07-29T10:16:08;8.48;;;8.07;;
67554;SDS011;54385;53.516;49.456;2022-07-29T10:18:35;8.82;;;8.43;;
67554;SDS011;54385;53.516;49.456;2022-07-29T10:21:04;9.60;;;9.20;;
67554;SDS011;54385;53.516;49.456;2022-07-29T10:23:32;13.60;;;12.98;;
67554;SDS011;54385;53.516;49.456;2022-07-29T10:26:01;14.95;;;14.25;;
67554;SDS011;54385;53.516;49.456;2022-07-29T10:28:30;17.38;;;16.58;;
67554;SDS011;54385;53.516;49.456;2022-07-29T10:31:01;16.60;;;15.80;;
67554;SDS011;54385;53.516;49.456;2022-07-29T10:44:50;16.23;;;15.43;;
67554;SDS011;54385;53.516;49.456;2022-07-29T10:47:22;18.05;;;17.15;;
67554;SDS011;54385;53.516;49.456;2022-07-29T10:49:57;16.27;;;15.48;;
67554;SDS011;54385;53.516;49.456;2022-07-29T10:52:31;17.10;;;16.30;;
67554;SDS011;54385;53.516;49.456;2022-07-29T10:55:37;16.67;;;15.88;;
67554;SDS011;54385;53.516;49.456;2022-07-29T10:58:11;15.50;;;14.80;;
67554;SDS011;54385;53.516;49.456;2022-07-29T11:00:43;15.23;;;14.52;;
67554;SDS011;54385;53.516;49.456;2022-07-29T11:03:28;15.90;;;15.15;;
67554;SDS011;54385;53.516;49.456;2022-07-29T11:06:10;15.45;;;14.75;;
67554;SDS011;54385;53.516;49.456;2022-07-29T11:08:37;16.13;;;15.32;;
67554;SDS011;54385;53.516;49.456;2022-07-29T11:13:59;16.60;;;15.80;;
67554;SDS011;54385;53.516;49.456;2022-07-29T11:16:25;17.48;;;16.67;;
67554;SDS011;54385;53.516;49.456;2022-07-29T11:19:30;15.77;;;15.07;;
67554;SDS011;54385;53.516;49.456;2022-07-29T11:21:57;17.08;;;16.27;;
67554;SDS011;54385;53.516;49.456;2022-07-29T11:24:28;15.50;;;14.80;;
67554;SDS011;54385;53.516;49.456;2022-07-29T11:29:33;16.10;;;15.30;;
67554;SDS011;54385;53.516;49.456;2022-07-29T11:32:09;17.30;;;16.50;;
67554;SDS011;54385;53.516;49.456;2022-07-29T11:34:37;17.15;;;16.35;;
67554;SDS011;54385;53.516;49.456;2022-07-29T11:39:38;17.17;;;16.38;;
67554;SDS011;54385;53.516;49.456;2022-07-29T11:44:57;16.38;;;15.57;;
67554;SDS011;54385;53.516;49.456;2022-07-29T11:47:33;16.48;;;15.68;;
67554;SDS011;54385;53.516;49.456;2022-07-29T11:50:03;15.82;;;15.10;;
67554;SDS011;54385;53.516;49.456;2022-07-29T11:52:42;15.60;;;14.90;;
67554;SDS011;54385;53.516;49.456;2022-07-29T11:55:15;15.60;;;14.90;;
67554;SDS011;54385;53.516;49.456;2022-07-29T11:57:49;16.55;;;15.75;;
67554;SDS011;54385;53.516;49.456;2022-07-29T12:02:49;18.48;;;17.58;;
67554;SDS011;54385;53.516;49.456;2022-07-29T12:05:16;18.40;;;17.50;;
67554;SDS011;54385;53.516;49.456;2022-07-29T12:07:43;18.17;;;17.27;;
67554;SDS011;54385;53.516;49.456;2022-07-29T12:10:10;16.50;;;15.70;;
67554;SDS011;54385;53.516;49.456;2022-07-29T12:12:37;16.52;;;15.73;;
67554;SDS011;54385;53.516;49.456;2022-07-29T12:15:11;20.05;;;19.08;;
67554;SDS011;54385;53.516;49.456;2022-07-29T12:17:38;19.90;;;18.92;;
67554;SDS011;54385;53.516;49.456;2022-07-29T12:20:07;18.50;;;17.60;;
67554;SDS011;54385;53.516;49.456;2022-07-29T12:22:35;17.67;;;16.85;;
67554;SDS011;54385;53.516;49.456;2022-07-29T12:25:04;17.45;;;16.65;;
67554;SDS011;54385;53.516;49.456;2022-07-29T12:27:36;16.52;;;15.73;;
67554;SDS011;54385;53.516;49.456;2022-07-29T12:32:38;15.10;;;14.40;;
67554;SDS011;54385;53.516;49.456;2022-07-29T12:35:11;14.63;;;13.93;;
67554;SDS011;54385;53.516;49.456;2022-07-29T12:37:40;14.30;;;13.60;;
67554;SDS011;54385;53.516;49.456;2022-07-29T12:40:09;15.20;;;14.50;;
67554;SDS011;54385;53.516;49.456;2022-07-29T12:42:41;12.68;;;12.07;;
67554;SDS011;54385;53.516;49.456;2022-07-29T12:45:28;12.63;;;12.02;;
67554;SDS011;54385;53.516;49.456;2022-07-29T12:47:55;13.55;;;12.95;;
67554;SDS011;54385;53.516;49.456;2022-07-29T12:50:25;14.77;;;14.07;;
67554;SDS011;54385;53.516;49.456;2022-07-29T12:52:52;15.05;;;14.35;;
67554;SDS011;54385;53.516;49.456;2022-07-29T12:58:08;16.05;;;15.25;;
67554;SDS011;54385;53.516;49.456;2022-07-29T13:00:35;16.60;;;15.80;;
67554;SDS011;54385;53.516;49.456;2022-07-29T13:03:01;16.50;;;15.70;;
67554;SDS011;54385;53.516;49.456;2022-07-29T13:05:38;17.00;;;16.20;;
67554;SDS011;54385;53.516;49.456;2022-07-29T13:08:12;18.05;;;17.15;;
67554;SDS011;54385;53.516;49.456;2022-07-29T13:10:43;17.98;;;17.10;;
67554;SDS011;54385;53.516;49.456;2022-07-29T13:13:10;21.33;;;20.33;;
67554;SDS011;54385;53.516;49.456;2022-07-29T13:15:39;20.65;;;19.65;;
67554;SDS011;54385;53.516;49.456;2022-07-29T13:20:57;20.67;;;19.67;;
67554;SDS011;54385;53.516;49.456;2022-07-29T13:23:40;22.77;;;21.67;;
67554;SDS011;54385;53.516;49.456;2022-07-29T13:26:12;22.63;;;21.52;;
67554;SDS011;54385;53.516;49.456;2022-07-29T13:28:39;20.73;;;19.73;;
67554;SDS011;54385;53.516;49.456;2022-07-29T13:31:05;18.98;;;18.08;;
67554;SDS011;54385;53.516;49.456;2022-07-29T13:33:35;21.08;;;20.08;;
67554;SDS011;54385;53.516;49.456;2022-07-29T13:36:01;19.13;;;18.23;;
67554;SDS011;54385;53.516;49.456;2022-07-29T13:38:33;21.08;;;20.08;;
67554;SDS011;54385;53.516;49.456;2022-07-29T13:41:00;20.95;;;19.95;;
67554;SDS011;54385;53.516;49.456;2022-07-29T13:43:27;22.52;;;21.42;;
67554;SDS011;54385;53.516;49.456;2022-07-29T13:45:53;23.10;;;22.00;;
67554;SDS011;54385;53.516;49.456;2022-07-29T13:48:20;22.27;;;21.17;;
67554;SDS011;54385;53.516;49.456;2022-07-29T13:50:50;21.33;;;20.33;;
67554;SDS011;54385;53.516;49.456;2022-07-29T13:53:16;19.20;;;18.30;;
67554;SDS011;54385;53.516;49.456;2022-07-29T13:55:43;16.90;;;16.10;;
67554;SDS011;54385;53.516;49.456;2022-07-29T13:58:10;14.30;;;13.60;;
67554;SDS011;54385;53.516;49.456;2022-07-29T14:00:39;13.50;;;12.90;;
67554;SDS011;54385;53.516;49.456;2022-07-29T14:03:06;13.40;;;12.80;;
67554;SDS011;54385;53.516;49.456;2022-07-29T14:05:32;11.38;;;10.88;;
67554;SDS011;54385;53.516;49.456;2022-07-29T14:07:59;10.05;;;9.55;;
67554;SDS011;54385;53.516;49.456;2022-07-29T14:10:25;9.05;;;8.65;;
67554;SDS011;54385;53.516;49.456;2022-07-29T14:12:52;8.10;;;7.70;;
67554;SDS011;54385;53.516;49.456;2022-07-29T14:15:19;7.70;;;7.40;;
67554;SDS011;54385;53.516;49.456;2022-07-29T14:17:45;7.32;;;7.03;;
67554;SDS011;54385;53.516;49.456;2022-07-29T14:20:12;5.70;;;5.50;;
67554;SDS011;54385;53.516;49.456;2022-07-29T14:22:41;7.05;;;6.75;;
67554;SDS011;54385;53.516;49.456;2022-07-29T14:25:10;5.38;;;5.18;;
67554;SDS011;54385;53.516;49.456;2022-07-29T14:27:37;4.78;;;4.57;;
67554;SDS011;54385;53.516;49.456;2022-07-29T14:30:03;4.38;;;4.18;;
67554;SDS011;54385;53.516;49.456;2022-07-29T14:32:31;4.03;;;3.88;;
67554;SDS011;54385;53.516;49.456;2022-07-29T14:35:00;3.80;;;3.70;;
67554;SDS011;54385;53.516;49.456;2022-07-29T14:37:26;4.80;;;4.60;;
67554;SDS011;54385;53.516;49.456;2022-07-29T14:39:53;3.70;;;3.60;;
67554;SDS011;54385;53.516;49.456;2022-07-29T14:42:25;3.30;;;3.20;;
67554;SDS011;54385;53.516;49.456;2022-07-29T14:44:52;3.35;;;3.25;;
67554;SDS011;54385;53.516;49.456;2022-07-29T14:47:19;3.50;;;3.40;;
67554;SDS011;54385;53.516;49.456;2022-07-29T14:49:47;3.20;;;3.10;;
67554;SDS011;54385;53.516;49.456;2022-07-29T14:52:13;3.13;;;3.03;;
67554;SDS011;54385;53.516;49.456;2022-07-29T14:54:40;3.20;;;3.10;;
67554;SDS011;54385;53.516;49.456;2022-07-29T14:57:06;3.15;;;3.05;;
67554;SDS011;54385;53.516;49.456;2022-07-29T14:59:33;2.97;;;2.88;;
67554;SDS011;54385;53.516;49.456;2022-07-29T15:01:59;3.10;;;3.00;;
67554;SDS011;54385;53.516;49.456;2022-07-29T15:04:26;2.88;;;2.78;;
67554;SDS011;54385;53.516;49.456;2022-07-29T15:06:52;2.90;;;2.80;;
67554;SDS011;54385;53.516;49.456;2022-07-29T15:09:22;2.65;;;2.55;;
67554;SDS011;54385;53.516;49.456;2022-07-29T15:11:53;2.75;;;2.65;;
67554;SDS011;54385;53.516;49.456;2022-07-29T15:14:22;4.15;;;3.97;;
67554;SDS011;54385;53.516;49.456;2022-07-29T15:16:53;2.70;;;2.60;;
67554;SDS011;54385;53.516;49.456;2022-07-29T15:19:23;2.55;;;2.45;;
67554;SDS011;54385;53.516;49.456;2022-07-29T15:21:50;2.40;;;2.30;;
67554;SDS011;54385;53.516;49.456;2022-07-29T15:24:17;2.53;;;2.42;;
67554;SDS011;54385;53.516;49.456;2022-07-29T15:26:43;2.50;;;2.40;;
67554;SDS011;54385;53.516;49.456;2022-07-29T15:29:11;2.53;;;2.42;;
67554;SDS011;54385;53.516;49.456;2022-07-29T15:31:37;2.30;;;2.20;;